sensor_id;sensor_type;location;lat;lon;timestamp;temperature;humidity
32640;DHT22;19049;52.524;11.468;2023-07-28T00:00:27;19.30;99.90
32640;DHT22;19049;52.524;11.468;2023-07-28T00:02:53;19.70;99.90
32640;DHT22;19049;52.524;11.468;2023-07-28T00:07:45;19.40;99.90
32640;DHT22;19049;52.524;11.468;2023-07-28T00:12:37;18.80;99.90
32640;DHT22;19049;52.524;11.468;2023-07-28T00:15:02;19.90;99.90
32640;DHT22;19049;52.524;11.468;2023-07-28T00:17:28;18.70;99.90
32640;DHT22;19049;52.524;11.468;2023-07-28T00:19:54;19.10;99.90
32640;DHT22;19049;52.524;11.468;2023-07-28T00:27:11;18.50;99.90
32640;DHT22;19049;52.524;11.468;2023-07-28T00:29:40;19.00;99.90
32640;DHT22;19049;52.524;11.468;2023-07-28T00:32:07;19.80;99.90
32640;DHT22;19049;52.524;11.468;2023-07-28T00:34:32;18.90;99.90
32640;DHT22;19049;52.524;11.468;2023-07-28T00:46:43;18.90;99.90
32640;DHT22;19049;52.524;11.468;2023-07-28T00:49:09;20.00;99.90
32640;DHT22;19049;52.524;11.468;2023-07-28T00:54:02;18.70;99.90
32640;DHT22;19049;52.524;11.468;2023-07-28T00:58:55;19.70;99.90
32640;DHT22;19049;52.524;11.468;2023-07-28T01:01:21;20.00;99.90
32640;DHT22;19049;52.524;11.468;2023-07-28T01:03:48;19.90;99.90
32640;DHT22;19049;52.524;11.468;2023-07-28T01:09:16;19.30;99.90
32640;DHT22;19049;52.524;11.468;2023-07-28T01:11:58;19.60;99.90
32640;DHT22;19049;52.524;11.468;2023-07-28T01:14:24;19.30;99.90
32640;DHT22;19049;52.524;11.468;2023-07-28T01:19:17;19.60;99.90
32640;DHT22;19049;52.524;11.468;2023-07-28T01:21:52;19.70;99.90
32640;DHT22;19049;52.524;11.468;2023-07-28T01:24:27;19.20;99.90
32640;DHT22;19049;52.524;11.468;2023-07-28T01:26:54;18.70;99.90
32640;DHT22;19049;52.524;11.468;2023-07-28T01:29:21;19.30;99.90
32640;DHT22;19049;52.524;11.468;2023-07-28T01:31:47;19.90;99.90
32640;DHT22;19049;52.524;11.468;2023-07-28T01:34:13;19.30;99.90
32640;DHT22;19049;52.524;11.468;2023-07-28T01:39:06;19.60;99.90
32640;DHT22;19049;52.524;11.468;2023-07-28T01:41:31;19.00;99.90
32640;DHT22;19049;52.524;11.468;2023-07-28T01:43:58;19.20;99.90
32640;DHT22;19049;52.524;11.468;2023-07-28T01:46:24;18.60;99.90
32640;DHT22;19049;52.524;11.468;2023-07-28T01:48:49;18.70;99.90
32640;DHT22;19049;52.524;11.468;2023-07-28T01:51:15;18.70;99.90
32640;DHT22;19049;52.524;11.468;2023-07-28T01:53:40;19.20;99.90
32640;DHT22;19049;52.524;11.468;2023-07-28T01:56:06;19.40;99.90
32640;DHT22;19049;52.524;11.468;2023-07-28T02:00:58;19.00;99.90
32640;DHT22;19049;52.524;11.468;2023-07-28T02:03:23;19.10;99.90
32640;DHT22;19049;52.524;11.468;2023-07-28T02:05:49;18.70;99.90
32640;DHT22;19049;52.524;11.468;2023-07-28T02:13:07;18.90;99.90
32640;DHT22;19049;52.524;11.468;2023-07-28T02:15:32;19.10;99.90
32640;DHT22;19049;52.524;11.468;2023-07-28T02:17:58;18.90;99.90
32640;DHT22;19049;52.524;11.468;2023-07-28T02:22:50;19.00;99.90
32640;DHT22;19049;52.524;11.468;2023-07-28T02:27:41;19.70;99.90
32640;DHT22;19049;52.524;11.468;2023-07-28T02:32:34;19.70;99.90
32640;DHT22;19049;52.524;11.468;2023-07-28T02:39:51;18.90;99.90
32640;DHT22;19049;52.524;11.468;2023-07-28T02:44:43;19.10;99.90
32640;DHT22;19049;52.524;11.468;2023-07-28T02:47:09;19.00;99.90
32640;DHT22;19049;52.524;11.468;2023-07-28T02:49:34;18.70;99.90
32640;DHT22;19049;52.524;11.468;2023-07-28T02:54:28;19.60;99.90
32640;DHT22;19049;52.524;11.468;2023-07-28T02:59:20;19.50;99.90
32640;DHT22;19049;52.524;11.468;2023-07-28T03:01:46;18.70;99.90
32640;DHT22;19049;52.524;11.468;2023-07-28T03:04:12;19.80;99.90
32640;DHT22;19049;52.524;11.468;2023-07-28T03:09:04;19.50;99.90
32640;DHT22;19049;52.524;11.468;2023-07-28T03:13:55;19.70;99.90
32640;DHT22;19049;52.524;11.468;2023-07-28T03:18:47;19.90;99.90
32640;DHT22;19049;52.524;11.468;2023-07-28T03:21:13;19.00;99.90
32640;DHT22;19049;52.524;11.468;2023-07-28T03:23:38;19.50;99.90
32640;DHT22;19049;52.524;11.468;2023-07-28T03:30:56;19.80;99.90
32640;DHT22;19049;52.524;11.468;2023-07-28T03:35:48;19.30;99.90
32640;DHT22;19049;52.524;11.468;2023-07-28T03:40:39;19.00;99.90
32640;DHT22;19049;52.524;11.468;2023-07-28T03:57:43;19.10;99.90
32640;DHT22;19049;52.524;11.468;2023-07-28T04:00:10;20.00;99.90
32640;DHT22;19049;52.524;11.468;2023-07-28T04:05:01;19.30;99.90
32640;DHT22;19049;52.524;11.468;2023-07-28T04:09:53;18.80;99.90
32640;DHT22;19049;52.524;11.468;2023-07-28T04:24:29;20.00;99.90
32640;DHT22;19049;52.524;11.468;2023-07-28T04:34:13;19.50;99.90
32640;DHT22;19049;52.524;11.468;2023-07-28T04:53:41;19.30;99.90
32640;DHT22;19049;52.524;11.468;2023-07-28T05:25:21;19.00;99.90
32640;DHT22;19049;52.524;11.468;2023-07-28T05:59:28;19.40;99.90
32640;DHT22;19049;52.524;11.468;2023-07-28T06:04:20;19.40;99.90
32640;DHT22;19049;52.524;11.468;2023-07-28T06:36:02;19.80;99.90
32640;DHT22;19049;52.524;11.468;2023-07-28T06:55:30;20.60;99.90
32640;DHT22;19049;52.524;11.468;2023-07-28T06:57:56;20.20;99.90
32640;DHT22;19049;52.524;11.468;2023-07-28T07:00:22;20.30;99.90
32640;DHT22;19049;52.524;11.468;2023-07-28T07:02:48;20.40;99.90
32640;DHT22;19049;52.524;11.468;2023-07-28T07:05:14;20.40;99.90
32640;DHT22;19049;52.524;11.468;2023-07-28T07:07:40;20.40;99.90
32640;DHT22;19049;52.524;11.468;2023-07-28T07:10:07;20.50;99.90
32640;DHT22;19049;52.524;11.468;2023-07-28T07:12:33;20.50;99.90
32640;DHT22;19049;52.524;11.468;2023-07-28T07:14:58;20.50;99.90
32640;DHT22;19049;52.524;11.468;2023-07-28T07:17:24;20.50;99.90
32640;DHT22;19049;52.524;11.468;2023-07-28T07:19:50;20.50;99.90
32640;DHT22;19049;52.524;11.468;2023-07-28T07:22:15;20.60;99.90
32640;DHT22;19049;52.524;11.468;2023-07-28T07:24:41;20.60;99.90
32640;DHT22;19049;52.524;11.468;2023-07-28T07:27:07;20.60;99.90
32640;DHT22;19049;52.524;11.468;2023-07-28T07:29:39;20.70;99.90
32640;DHT22;19049;52.524;11.468;2023-07-28T07:32:06;20.80;99.90
32640;DHT22;19049;52.524;11.468;2023-07-28T07:34:32;20.80;99.90
32640;DHT22;19049;52.524;11.468;2023-07-28T07:36:58;21.00;99.90
32640;DHT22;19049;52.524;11.468;2023-07-28T07:41:49;20.60;99.90
32640;DHT22;19049;52.524;11.468;2023-07-28T07:44:15;19.90;99.90
32640;DHT22;19049;52.524;11.468;2023-07-28T07:51:33;21.40;99.90
32640;DHT22;19049;52.524;11.468;2023-07-28T07:53:59;20.30;99.90
32640;DHT22;19049;52.524;11.468;2023-07-28T07:56:27;21.60;99.90
32640;DHT22;19049;52.524;11.468;2023-07-28T07:58:53;21.10;99.90
32640;DHT22;19049;52.524;11.468;2023-07-28T08:03:44;20.70;99.90
32640;DHT22;19049;52.524;11.468;2023-07-28T08:06:10;21.20;99.90
32640;DHT22;19049;52.524;11.468;2023-07-28T08:08:37;21.50;99.90
32640;DHT22;19049;52.524;11.468;2023-07-28T08:11:03;21.20;99.90
32640;DHT22;19049;52.524;11.468;2023-07-28T08:13:29;21.30;99.90
32640;DHT22;19049;52.524;11.468;2023-07-28T08:15:55;21.30;99.90
32640;DHT22;19049;52.524;11.468;2023-07-28T08:18:20;21.30;99.90
32640;DHT22;19049;52.524;11.468;2023-07-28T08:20:46;21.30;99.90
32640;DHT22;19049;52.524;11.468;2023-07-28T08:23:12;21.30;99.90
32640;DHT22;19049;52.524;11.468;2023-07-28T08:25:38;21.20;99.90
32640;DHT22;19049;52.524;11.468;2023-07-28T08:28:03;21.30;99.90
32640;DHT22;19049;52.524;11.468;2023-07-28T08:30:29;21.30;99.90
32640;DHT22;19049;52.524;11.468;2023-07-28T08:32:57;21.30;99.90
32640;DHT22;19049;52.524;11.468;2023-07-28T08:35:23;21.30;99.90
32640;DHT22;19049;52.524;11.468;2023-07-28T08:37:48;21.30;99.90
32640;DHT22;19049;52.524;11.468;2023-07-28T08:40:14;21.40;99.90
32640;DHT22;19049;52.524;11.468;2023-07-28T08:42:40;21.40;99.90
32640;DHT22;19049;52.524;11.468;2023-07-28T08:45:06;21.40;99.90
32640;DHT22;19049;52.524;11.468;2023-07-28T08:47:34;21.30;99.90
32640;DHT22;19049;52.524;11.468;2023-07-28T08:50:00;21.30;99.90
32640;DHT22;19049;52.524;11.468;2023-07-28T08:52:26;21.30;99.90
32640;DHT22;19049;52.524;11.468;2023-07-28T08:54:53;21.30;99.90
32640;DHT22;19049;52.524;11.468;2023-07-28T08:57:19;20.80;99.90
32640;DHT22;19049;52.524;11.468;2023-07-28T08:59:46;21.50;99.90
32640;DHT22;19049;52.524;11.468;2023-07-28T09:02:16;21.00;99.90
32640;DHT22;19049;52.524;11.468;2023-07-28T09:04:42;20.00;99.90
32640;DHT22;19049;52.524;11.468;2023-07-28T09:07:08;21.40;99.90
32640;DHT22;19049;52.524;11.468;2023-07-28T09:09:35;20.90;99.90
32640;DHT22;19049;52.524;11.468;2023-07-28T09:12:03;20.30;99.90
32640;DHT22;19049;52.524;11.468;2023-07-28T09:14:29;20.80;99.90
32640;DHT22;19049;52.524;11.468;2023-07-28T09:16:56;21.40;99.90
32640;DHT22;19049;52.524;11.468;2023-07-28T09:19:25;21.30;99.90
32640;DHT22;19049;52.524;11.468;2023-07-28T09:21:58;21.20;99.90
32640;DHT22;19049;52.524;11.468;2023-07-28T09:24:33;20.90;99.90
32640;DHT22;19049;52.524;11.468;2023-07-28T09:26:59;20.80;99.90
32640;DHT22;19049;52.524;11.468;2023-07-28T09:32:04;21.70;99.90
32640;DHT22;19049;52.524;11.468;2023-07-28T09:34:30;21.70;99.90
32640;DHT22;19049;52.524;11.468;2023-07-28T09:36:57;22.40;99.90
32640;DHT22;19049;52.524;11.468;2023-07-28T09:39:24;21.90;99.90
32640;DHT22;19049;52.524;11.468;2023-07-28T09:41:50;22.20;99.90
32640;DHT22;19049;52.524;11.468;2023-07-28T09:44:16;22.40;99.90
32640;DHT22;19049;52.524;11.468;2023-07-28T09:46:55;22.70;99.90
32640;DHT22;19049;52.524;11.468;2023-07-28T09:49:34;22.70;99.90
32640;DHT22;19049;52.524;11.468;2023-07-28T09:52:04;23.60;99.90
32640;DHT22;19049;52.524;11.468;2023-07-28T09:54:34;23.50;99.90
32640;DHT22;19049;52.524;11.468;2023-07-28T09:57:03;23.50;99.90
32640;DHT22;19049;52.524;11.468;2023-07-28T09:59:32;23.50;99.90
32640;DHT22;19049;52.524;11.468;2023-07-28T10:02:01;23.70;99.90
32640;DHT22;19049;52.524;11.468;2023-07-28T10:04:27;23.30;99.90
32640;DHT22;19049;52.524;11.468;2023-07-28T10:09:26;23.90;99.90
32640;DHT22;19049;52.524;11.468;2023-07-28T10:14:45;24.30;99.90
32640;DHT22;19049;52.524;11.468;2023-07-28T10:17:16;24.10;99.90
32640;DHT22;19049;52.524;11.468;2023-07-28T10:19:42;23.50;99.90
32640;DHT22;19049;52.524;11.468;2023-07-28T10:22:11;24.10;99.90
32640;DHT22;19049;52.524;11.468;2023-07-28T10:24:54;24.20;99.90
32640;DHT22;19049;52.524;11.468;2023-07-28T10:30:01;24.50;99.90
32640;DHT22;19049;52.524;11.468;2023-07-28T10:35:00;24.30;99.90
32640;DHT22;19049;52.524;11.468;2023-07-28T10:37:26;24.30;99.90
32640;DHT22;19049;52.524;11.468;2023-07-28T10:42:50;23.60;99.90
32640;DHT22;19049;52.524;11.468;2023-07-28T10:52:45;22.90;99.90
32640;DHT22;19049;52.524;11.468;2023-07-28T10:55:23;23.10;99.90
32640;DHT22;19049;52.524;11.468;2023-07-28T10:57:52;22.90;99.90
32640;DHT22;19049;52.524;11.468;2023-07-28T11:00:20;22.70;99.90
32640;DHT22;19049;52.524;11.468;2023-07-28T11:02:48;23.30;99.90
32640;DHT22;19049;52.524;11.468;2023-07-28T11:05:22;23.40;99.90
32640;DHT22;19049;52.524;11.468;2023-07-28T11:07:49;23.50;99.90
32640;DHT22;19049;52.524;11.468;2023-07-28T11:12:46;23.50;99.90
32640;DHT22;19049;52.524;11.468;2023-07-28T11:15:14;23.50;99.90
32640;DHT22;19049;52.524;11.468;2023-07-28T11:17:42;23.90;99.90
32640;DHT22;19049;52.524;11.468;2023-07-28T11:20:23;24.20;99.90
32640;DHT22;19049;52.524;11.468;2023-07-28T11:22:53;24.40;99.90
32640;DHT22;19049;52.524;11.468;2023-07-28T11:25:19;25.00;99.90
32640;DHT22;19049;52.524;11.468;2023-07-28T11:27:47;24.50;99.90
32640;DHT22;19049;52.524;11.468;2023-07-28T11:30:16;24.60;99.90
32640;DHT22;19049;52.524;11.468;2023-07-28T11:32:54;24.20;99.90
32640;DHT22;19049;52.524;11.468;2023-07-28T11:35:21;24.20;99.90
32640;DHT22;19049;52.524;11.468;2023-07-28T11:37:49;25.10;99.90
32640;DHT22;19049;52.524;11.468;2023-07-28T11:40:18;24.00;99.90
32640;DHT22;19049;52.524;11.468;2023-07-28T11:42:46;25.20;99.90
32640;DHT22;19049;52.524;11.468;2023-07-28T11:45:13;24.80;99.90
32640;DHT22;19049;52.524;11.468;2023-07-28T11:52:33;25.10;99.90
32640;DHT22;19049;52.524;11.468;2023-07-28T11:59:54;25.10;99.90
32640;DHT22;19049;52.524;11.468;2023-07-28T12:02:27;25.20;99.90
32640;DHT22;19049;52.524;11.468;2023-07-28T12:04:53;25.60;99.90
32640;DHT22;19049;52.524;11.468;2023-07-28T12:12:26;26.40;99.90
32640;DHT22;19049;52.524;11.468;2023-07-28T12:14:55;27.10;99.90
32640;DHT22;19049;52.524;11.468;2023-07-28T12:17:22;27.70;99.90
32640;DHT22;19049;52.524;11.468;2023-07-28T12:20:03;27.90;99.90
32640;DHT22;19049;52.524;11.468;2023-07-28T12:22:41;28.20;99.90
32640;DHT22;19049;52.524;11.468;2023-07-28T12:25:08;27.30;99.90
32640;DHT22;19049;52.524;11.468;2023-07-28T12:27:34;28.60;99.90
32640;DHT22;19049;52.524;11.468;2023-07-28T12:32:27;28.10;99.90
32640;DHT22;19049;52.524;11.468;2023-07-28T12:34:52;28.80;99.90
32640;DHT22;19049;52.524;11.468;2023-07-28T12:37:18;28.40;99.90
32640;DHT22;19049;52.524;11.468;2023-07-28T12:42:11;28.70;99.90
32640;DHT22;19049;52.524;11.468;2023-07-28T12:44:38;28.80;99.90
32640;DHT22;19049;52.524;11.468;2023-07-28T12:47:04;29.10;99.90
32640;DHT22;19049;52.524;11.468;2023-07-28T12:49:30;28.50;99.90
32640;DHT22;19049;52.524;11.468;2023-07-28T12:52:00;28.80;99.90
32640;DHT22;19049;52.524;11.468;2023-07-28T12:54:26;28.90;99.90
32640;DHT22;19049;52.524;11.468;2023-07-28T12:56:54;28.60;99.70
32640;DHT22;19049;52.524;11.468;2023-07-28T13:01:46;28.50;99.90
32640;DHT22;19049;52.524;11.468;2023-07-28T13:04:12;28.20;99.90
32640;DHT22;19049;52.524;11.468;2023-07-28T13:06:38;28.10;99.90
32640;DHT22;19049;52.524;11.468;2023-07-28T13:09:06;27.40;99.80
32640;DHT22;19049;52.524;11.468;2023-07-28T13:11:33;28.50;99.90
32640;DHT22;19049;52.524;11.468;2023-07-28T13:18:52;28.10;96.10
32640;DHT22;19049;52.524;11.468;2023-07-28T13:21:18;26.90;98.80
32640;DHT22;19049;52.524;11.468;2023-07-28T13:23:43;27.70;94.60
32640;DHT22;19049;52.524;11.468;2023-07-28T13:26:09;28.00;99.90
32640;DHT22;19049;52.524;11.468;2023-07-28T13:28:35;27.40;97.10
32640;DHT22;19049;52.524;11.468;2023-07-28T13:31:04;26.20;99.90
32640;DHT22;19049;52.524;11.468;2023-07-28T13:33:30;26.80;96.40
32640;DHT22;19049;52.524;11.468;2023-07-28T13:35:56;26.50;97.30
32640;DHT22;19049;52.524;11.468;2023-07-28T13:38:22;26.10;97.50
32640;DHT22;19049;52.524;11.468;2023-07-28T13:43:13;25.30;99.90
32640;DHT22;19049;52.524;11.468;2023-07-28T13:55:23;23.70;99.90
32640;DHT22;19049;52.524;11.468;2023-07-28T14:00:15;24.50;99.90
32640;DHT22;19049;52.524;11.468;2023-07-28T14:05:07;23.50;99.90
32640;DHT22;19049;52.524;11.468;2023-07-28T14:10:00;23.90;99.90
32640;DHT22;19049;52.524;11.468;2023-07-28T14:14:52;23.60;99.90
32640;DHT22;19049;52.524;11.468;2023-07-28T14:17:18;23.00;99.90
32640;DHT22;19049;52.524;11.468;2023-07-28T14:19:43;22.30;99.90
32640;DHT22;19049;52.524;11.468;2023-07-28T14:24:35;22.30;99.90
32640;DHT22;19049;52.524;11.468;2023-07-28T14:27:01;22.20;99.90
32640;DHT22;19049;52.524;11.468;2023-07-28T14:29:27;22.10;99.90
32640;DHT22;19049;52.524;11.468;2023-07-28T14:31:53;22.00;99.90
32640;DHT22;19049;52.524;11.468;2023-07-28T14:34:19;22.00;99.90
32640;DHT22;19049;52.524;11.468;2023-07-28T14:36:44;22.00;99.90
32640;DHT22;19049;52.524;11.468;2023-07-28T14:39:10;22.10;99.90
32640;DHT22;19049;52.524;11.468;2023-07-28T14:41:36;22.20;99.90
32640;DHT22;19049;52.524;11.468;2023-07-28T14:44:02;22.20;99.90
32640;DHT22;19049;52.524;11.468;2023-07-28T14:46:28;22.20;99.90
32640;DHT22;19049;52.524;11.468;2023-07-28T14:48:54;22.20;99.90
32640;DHT22;19049;52.524;11.468;2023-07-28T14:51:21;22.10;99.90
32640;DHT22;19049;52.524;11.468;2023-07-28T14:53:47;22.10;99.90
32640;DHT22;19049;52.524;11.468;2023-07-28T14:56:14;22.00;99.90
32640;DHT22;19049;52.524;11.468;2023-07-28T14:58:40;21.90;99.90
32640;DHT22;19049;52.524;11.468;2023-07-28T15:01:07;21.80;99.90
32640;DHT22;19049;52.524;11.468;2023-07-28T15:06:02;21.60;99.90
32640;DHT22;19049;52.524;11.468;2023-07-28T15:10:56;21.60;99.90
32640;DHT22;19049;52.524;11.468;2023-07-28T15:20:41;22.00;99.90
32640;DHT22;19049;52.524;11.468;2023-07-28T15:27:59;23.40;99.90
32640;DHT22;19049;52.524;11.468;2023-07-28T15:30:24;23.60;99.90
32640;DHT22;19049;52.524;11.468;2023-07-28T15:32:50;24.00;99.90
32640;DHT22;19049;52.524;11.468;2023-07-28T15:35:16;24.30;99.90
32640;DHT22;19049;52.524;11.468;2023-07-28T15:37:41;24.50;99.90
32640;DHT22;19049;52.524;11.468;2023-07-28T15:47:25;26.70;99.90
32640;DHT22;19049;52.524;11.468;2023-07-28T15:49:52;26.20;99.90
32640;DHT22;19049;52.524;11.468;2023-07-28T15:52:19;26.20;99.90
32640;DHT22;19049;52.524;11.468;2023-07-28T15:54:45;26.70;99.90
32640;DHT22;19049;52.524;11.468;2023-07-28T15:57:10;25.70;99.90
32640;DHT22;19049;52.524;11.468;2023-07-28T15:59:36;26.10;99.90
32640;DHT22;19049;52.524;11.468;2023-07-28T16:02:03;25.10;99.90
32640;DHT22;19049;52.524;11.468;2023-07-28T16:09:21;25.80;99.90
32640;DHT22;19049;52.524;11.468;2023-07-28T16:11:46;26.20;99.90
32640;DHT22;19049;52.524;11.468;2023-07-28T16:14:12;27.00;99.90
32640;DHT22;19049;52.524;11.468;2023-07-28T16:16:38;26.30;99.90
32640;DHT22;19049;52.524;11.468;2023-07-28T16:19:04;26.70;99.90
32640;DHT22;19049;52.524;11.468;2023-07-28T16:21:32;27.00;99.90
32640;DHT22;19049;52.524;11.468;2023-07-28T16:23:57;28.10;99.90
32640;DHT22;19049;52.524;11.468;2023-07-28T16:26:23;27.80;99.90
32640;DHT22;19049;52.524;11.468;2023-07-28T16:28:49;28.50;99.90
32640;DHT22;19049;52.524;11.468;2023-07-28T16:31:14;28.60;99.90
32640;DHT22;19049;52.524;11.468;2023-07-28T16:33:40;27.30;99.90
32640;DHT22;19049;52.524;11.468;2023-07-28T16:40:58;27.60;99.90
32640;DHT22;19049;52.524;11.468;2023-07-28T16:45:49;26.70;99.90
32640;DHT22;19049;52.524;11.468;2023-07-28T16:48:15;27.60;99.90
32640;DHT22;19049;52.524;11.468;2023-07-28T16:55:32;26.70;99.90
32640;DHT22;19049;52.524;11.468;2023-07-28T16:57:58;25.20;99.90
32640;DHT22;19049;52.524;11.468;2023-07-28T17:02:50;25.20;99.90
32640;DHT22;19049;52.524;11.468;2023-07-28T17:05:16;25.20;99.90
32640;DHT22;19049;52.524;11.468;2023-07-28T17:10:09;25.40;99.90
32640;DHT22;19049;52.524;11.468;2023-07-28T17:12:35;24.30;99.90
32640;DHT22;19049;52.524;11.468;2023-07-28T17:17:27;24.70;99.90
32640;DHT22;19049;52.524;11.468;2023-07-28T17:34:36;24.20;99.90
32640;DHT22;19049;52.524;11.468;2023-07-28T17:44:20;22.80;99.90
32640;DHT22;19049;52.524;11.468;2023-07-28T17:51:37;23.20;99.90
32640;DHT22;19049;52.524;11.468;2023-07-28T17:54:03;23.10;99.90
32640;DHT22;19049;52.524;11.468;2023-07-28T17:56:29;23.00;99.90
32640;DHT22;19049;52.524;11.468;2023-07-28T18:06:17;22.40;99.90
32640;DHT22;19049;52.524;11.468;2023-07-28T18:08:42;22.30;99.90
32640;DHT22;19049;52.524;11.468;2023-07-28T18:13:34;22.20;99.90
32640;DHT22;19049;52.524;11.468;2023-07-28T18:16:00;22.20;99.90
32640;DHT22;19049;52.524;11.468;2023-07-28T18:28:09;21.90;99.90
32640;DHT22;19049;52.524;11.468;2023-07-28T18:30:35;22.30;99.90
32640;DHT22;19049;52.524;11.468;2023-07-28T18:33:01;21.70;99.90
32640;DHT22;19049;52.524;11.468;2023-07-28T18:37:53;22.20;99.90
32640;DHT22;19049;52.524;11.468;2023-07-28T18:40:19;21.90;99.90
32640;DHT22;19049;52.524;11.468;2023-07-28T18:42:44;21.70;99.90
32640;DHT22;19049;52.524;11.468;2023-07-28T18:47:36;21.10;99.90
32640;DHT22;19049;52.524;11.468;2023-07-28T18:50:02;21.90;99.90
32640;DHT22;19049;52.524;11.468;2023-07-28T18:54:54;21.90;99.90
32640;DHT22;19049;52.524;11.468;2023-07-28T18:57:19;20.80;99.90
32640;DHT22;19049;52.524;11.468;2023-07-28T18:59:45;21.40;99.90
32640;DHT22;19049;52.524;11.468;2023-07-28T19:02:11;21.40;99.90
32640;DHT22;19049;52.524;11.468;2023-07-28T19:04:36;21.40;99.90
32640;DHT22;19049;52.524;11.468;2023-07-28T19:07:02;21.40;99.90
32640;DHT22;19049;52.524;11.468;2023-07-28T19:09:28;21.40;99.90
32640;DHT22;19049;52.524;11.468;2023-07-28T19:11:53;21.30;99.90
32640;DHT22;19049;52.524;11.468;2023-07-28T19:16:47;21.10;99.90
32640;DHT22;19049;52.524;11.468;2023-07-28T19:19:13;21.20;99.90
32640;DHT22;19049;52.524;11.468;2023-07-28T19:21:38;21.20;99.90
32640;DHT22;19049;52.524;11.468;2023-07-28T19:24:04;21.40;99.90
32640;DHT22;19049;52.524;11.468;2023-07-28T19:26:30;21.10;99.90
32640;DHT22;19049;52.524;11.468;2023-07-28T19:28:56;21.10;99.90
32640;DHT22;19049;52.524;11.468;2023-07-28T19:31:22;20.50;99.90
32640;DHT22;19049;52.524;11.468;2023-07-28T19:33:48;21.10;99.90
32640;DHT22;19049;52.524;11.468;2023-07-28T19:36:13;21.00;99.90
32640;DHT22;19049;52.524;11.468;2023-07-28T19:38:39;21.00;99.90
32640;DHT22;19049;52.524;11.468;2023-07-28T19:41:05;20.70;99.90
32640;DHT22;19049;52.524;11.468;2023-07-28T19:43:30;21.00;99.90
32640;DHT22;19049;52.524;11.468;2023-07-28T19:45:56;20.90;99.90
32640;DHT22;19049;52.524;11.468;2023-07-28T19:48:22;21.10;99.90
32640;DHT22;19049;52.524;11.468;2023-07-28T19:50:49;21.10;99.90
32640;DHT22;19049;52.524;11.468;2023-07-28T19:55:42;21.20;99.90
32640;DHT22;19049;52.524;11.468;2023-07-28T19:58:08;20.40;99.90
32640;DHT22;19049;52.524;11.468;2023-07-28T20:00:34;20.70;99.90
32640;DHT22;19049;52.524;11.468;2023-07-28T20:05:25;20.40;99.90
32640;DHT22;19049;52.524;11.468;2023-07-28T20:10:17;21.20;99.90
32640;DHT22;19049;52.524;11.468;2023-07-28T20:12:43;21.10;99.90
32640;DHT22;19049;52.524;11.468;2023-07-28T20:15:08;20.50;99.90
32640;DHT22;19049;52.524;11.468;2023-07-28T20:17:34;20.50;99.90
32640;DHT22;19049;52.524;11.468;2023-07-28T20:20:00;20.40;99.90
32640;DHT22;19049;52.524;11.468;2023-07-28T20:22:26;20.40;99.90
32640;DHT22;19049;52.524;11.468;2023-07-28T20:24:51;20.40;99.90
32640;DHT22;19049;52.524;11.468;2023-07-28T20:27:17;20.30;99.90
32640;DHT22;19049;52.524;11.468;2023-07-28T20:29:43;20.30;99.90
32640;DHT22;19049;52.524;11.468;2023-07-28T20:32:09;20.30;99.90
32640;DHT22;19049;52.524;11.468;2023-07-28T20:34:35;20.20;99.90
32640;DHT22;19049;52.524;11.468;2023-07-28T20:37:01;20.20;99.90
32640;DHT22;19049;52.524;11.468;2023-07-28T20:39:26;20.20;99.90
32640;DHT22;19049;52.524;11.468;2023-07-28T20:41:52;20.20;99.90
32640;DHT22;19049;52.524;11.468;2023-07-28T20:44:18;20.10;99.90
32640;DHT22;19049;52.524;11.468;2023-07-28T20:46:46;20.10;99.90
32640;DHT22;19049;52.524;11.468;2023-07-28T20:49:12;20.10;99.90
32640;DHT22;19049;52.524;11.468;2023-07-28T20:51:38;20.00;99.90
32640;DHT22;19049;52.524;11.468;2023-07-28T20:54:04;20.60;99.90
32640;DHT22;19049;52.524;11.468;2023-07-28T20:56:29;19.70;99.90
32640;DHT22;19049;52.524;11.468;2023-07-28T20:58:55;20.00;99.90
32640;DHT22;19049;52.524;11.468;2023-07-28T21:01:20;19.40;99.90
32640;DHT22;19049;52.524;11.468;2023-07-28T21:03:46;20.00;99.90
32640;DHT22;19049;52.524;11.468;2023-07-28T21:06:12;20.00;99.90
32640;DHT22;19049;52.524;11.468;2023-07-28T21:08:39;19.90;99.90
32640;DHT22;19049;52.524;11.468;2023-07-28T21:11:05;19.90;99.90
32640;DHT22;19049;52.524;11.468;2023-07-28T21:13:30;19.90;99.90
32640;DHT22;19049;52.524;11.468;2023-07-28T21:15:56;19.80;99.90
32640;DHT22;19049;52.524;11.468;2023-07-28T21:18:22;19.80;99.90
32640;DHT22;19049;52.524;11.468;2023-07-28T21:20:48;19.80;99.90
32640;DHT22;19049;52.524;11.468;2023-07-28T21:28:13;19.80;99.90
32640;DHT22;19049;52.524;11.468;2023-07-28T21:30:39;19.90;99.90
32640;DHT22;19049;52.524;11.468;2023-07-28T21:33:06;18.90;99.90
32640;DHT22;19049;52.524;11.468;2023-07-28T21:35:32;19.50;99.90
32640;DHT22;19049;52.524;11.468;2023-07-28T21:42:54;19.30;99.90
32640;DHT22;19049;52.524;11.468;2023-07-28T21:45:20;19.40;99.90
32640;DHT22;19049;52.524;11.468;2023-07-28T21:47:45;19.40;99.90
32640;DHT22;19049;52.524;11.468;2023-07-28T21:50:12;19.30;99.90
32640;DHT22;19049;52.524;11.468;2023-07-28T21:52:40;19.40;99.90
32640;DHT22;19049;52.524;11.468;2023-07-28T21:55:07;19.30;99.90
32640;DHT22;19049;52.524;11.468;2023-07-28T21:57:34;19.30;99.90
32640;DHT22;19049;52.524;11.468;2023-07-28T22:00:00;19.30;99.90
32640;DHT22;19049;52.524;11.468;2023-07-28T22:02:25;19.20;99.90
32640;DHT22;19049;52.524;11.468;2023-07-28T22:04:51;19.30;99.90
32640;DHT22;19049;52.524;11.468;2023-07-28T22:07:17;19.30;99.90
32640;DHT22;19049;52.524;11.468;2023-07-28T22:09:42;19.20;99.90
32640;DHT22;19049;52.524;11.468;2023-07-28T22:12:08;19.20;99.90
32640;DHT22;19049;52.524;11.468;2023-07-28T22:14:33;19.20;99.90
32640;DHT22;19049;52.524;11.468;2023-07-28T22:16:59;19.20;99.90
32640;DHT22;19049;52.524;11.468;2023-07-28T22:19:25;19.10;99.90
32640;DHT22;19049;52.524;11.468;2023-07-28T22:21:50;19.20;99.90
32640;DHT22;19049;52.524;11.468;2023-07-28T22:26:45;19.20;99.90
32640;DHT22;19049;52.524;11.468;2023-07-28T22:34:03;18.90;99.90
32640;DHT22;19049;52.524;11.468;2023-07-28T22:36:28;18.00;99.90
32640;DHT22;19049;52.524;11.468;2023-07-28T22:41:20;19.30;99.90
32640;DHT22;19049;52.524;11.468;2023-07-28T22:46:12;18.30;99.90
32640;DHT22;19049;52.524;11.468;2023-07-28T22:51:03;18.70;99.90
32640;DHT22;19049;52.524;11.468;2023-07-28T22:55:55;18.50;99.90
32640;DHT22;19049;52.524;11.468;2023-07-28T22:58:21;19.30;99.90